Time;durP1;ratioP1;P1;durP2;ratioP2;P2;SDS_P1;SDS_P2;PMS_P1;PMS_P2;Temp;Humidity;BMP_temperature;BMP_pressure;BME280_temperature;BME280_humidity;BME280_pressure;Samples;Min_cycle;Max_cycle;Signal;HPM_P1;HPM_P2
2023/09/12 00:00:39;;;;;;;10.23;5.78;;;;;;;20.37;85.70;101403.91;5057367;27;96795;-27
2023/09/12 00:03:04;;;;;;;11.40;5.93;;;;;;;20.35;85.70;101403.22;5057749;27;97316;-27
2023/09/12 00:05:30;;;;;;;10.38;5.50;;;;;;;20.33;85.53;101391.47;5057289;27;96714;-28
2023/09/12 00:07:55;;;;;;;11.07;6.15;;;;;;;20.35;85.50;101394.97;5057535;27;96803;-28
2023/09/12 00:10:20;;;;;;;14.32;6.28;;;;;;;20.31;85.87;101388.00;5056756;27;97910;-27
2023/09/12 00:12:46;;;;;;;14.02;6.18;;;;;;;20.28;86.04;101390.16;5057344;27;97782;-27
2023/09/12 00:15:12;;;;;;;12.38;5.97;;;;;;;20.31;86.26;101400.88;5057359;27;96643;-27
2023/09/12 00:17:38;;;;;;;11.20;6.25;;;;;;;20.24;85.89;101385.97;5039074;27;96837;-27
2023/09/12 00:20:06;;;;;;;14.93;6.28;;;;;;;20.23;86.39;101384.22;5038602;27;100799;-27
2023/09/12 00:22:31;;;;;;;12.55;6.18;;;;;;;20.23;85.51;101387.81;5038430;27;100975;-28
2023/09/12 00:24:57;;;;;;;12.38;5.93;;;;;;;20.26;85.84;101386.66;5057294;27;96514;-28
2023/09/12 00:27:22;;;;;;;12.68;6.20;;;;;;;20.21;85.83;101381.59;5057043;27;96910;-28
2023/09/12 00:29:47;;;;;;;14.27;6.78;;;;;;;20.19;86.02;101375.41;5056554;27;99254;-27
2023/09/12 00:32:13;;;;;;;12.30;6.85;;;;;;;20.22;86.17;101380.59;5057010;27;97766;-28
2023/09/12 00:34:38;;;;;;;11.98;6.43;;;;;;;20.23;85.89;101386.97;5056532;27;96717;-27
2023/09/12 00:37:04;;;;;;;18.08;7.25;;;;;;;20.15;85.88;101376.69;5056727;27;97753;-27
2023/09/12 00:39:30;;;;;;;12.98;6.72;;;;;;;20.13;86.30;101379.56;5038340;27;100984;-27
2023/09/12 00:41:55;;;;;;;11.13;6.18;;;;;;;20.11;86.13;101377.97;5056024;27;99789;-27
2023/09/12 00:44:21;;;;;;;11.45;5.88;;;;;;;20.10;86.53;101377.13;5056870;27;96750;-28
2023/09/12 00:46:49;;;;;;;12.98;7.22;;;;;;;20.07;86.57;101374.66;5056737;27;96870;-27
2023/09/12 00:49:16;;;;;;;16.50;6.55;;;;;;;20.09;86.53;101380.91;5056272;27;97915;-27
2023/09/12 00:51:43;;;;;;;12.93;6.40;;;;;;;20.07;86.57;101385.66;5056682;27;98707;-28
2023/09/12 00:54:09;;;;;;;14.45;7.07;;;;;;;20.04;86.94;101382.31;5038478;27;96569;-27
2023/09/12 00:56:35;;;;;;;10.88;6.18;;;;;;;19.96;87.15;101372.03;5038381;27;96885;-28
2023/09/12 00:59:01;;;;;;;17.08;6.85;;;;;;;20.01;86.78;101374.38;5037597;27;101615;-28
2023/09/12 01:01:26;;;;;;;12.38;6.30;;;;;;;20.04;87.17;101385.94;5037875;27;100763;-27
2023/09/12 01:03:52;;;;;;;12.65;6.95;;;;;;;20.05;86.90;101384.06;5056697;27;96545;-27
2023/09/12 01:06:28;;;;;;;13.48;6.75;;;;;;;20.06;86.29;101377.56;5038089;27;96845;-27
2023/09/12 01:08:55;;;;;;;11.85;6.65;;;;;;;20.06;87.09;101372.91;5056104;27;99202;-27
2023/09/12 01:11:20;;;;;;;12.95;7.22;;;;;;;20.02;86.65;101365.97;5037694;27;100899;-28
2023/09/12 01:13:46;;;;;;;13.23;6.20;;;;;;;20.05;87.10;101370.31;5056664;27;96699;-28
2023/09/12 01:16:11;;;;;;;14.88;6.50;;;;;;;19.94;87.22;101349.31;5056716;27;96903;-28
2023/09/12 01:18:37;;;;;;;14.40;7.03;;;;;;;19.99;86.76;101359.88;5055913;27;99309;-27
2023/09/12 01:21:27;;;;;;;14.05;6.30;;;;;;;20.01;87.02;101371.63;5037682;27;98888;-27
2023/09/12 01:24:23;;;;;;;11.82;5.90;;;;;;;19.99;87.44;101362.63;5037447;27;96748;-27
2023/09/12 01:26:59;;;;;;;10.65;5.53;;;;;;;19.97;87.14;101371.00;5055892;27;98210;-28
2023/09/12 01:29:26;;;;;;;17.15;6.50;;;;;;;19.94;86.98;101374.91;5056237;27;97340;-28
2023/09/12 01:31:52;;;;;;;14.63;6.65;;;;;;;19.90;87.55;101368.00;5037318;27;100878;-27
2023/09/12 01:34:19;;;;;;;12.05;6.10;;;;;;;19.92;87.49;101368.69;5037748;27;96702;-27
2023/09/12 01:36:44;;;;;;;11.35;6.00;;;;;;;19.90;87.02;101357.00;5056154;27;96742;-29
2023/09/12 01:39:09;;;;;;;10.95;5.75;;;;;;;19.87;87.13;101351.75;5055637;27;97399;-29
2023/09/12 01:41:39;;;;;;;13.73;6.60;;;;;;;19.83;87.22;101350.31;5055996;27;98293;-27
2023/09/12 01:44:06;;;;;;;12.57;6.05;;;;;;;19.80;87.04;101347.84;5037110;27;96929;-27
2023/09/12 01:46:34;;;;;;;11.88;6.10;;;;;;;19.86;87.12;101354.66;5020573;27;96884;-27
2023/09/12 01:49:00;;;;;;;11.73;6.13;;;;;;;19.82;87.55;101354.06;5036668;27;101165;-27
2023/09/12 01:51:26;;;;;;;15.85;6.40;;;;;;;19.83;87.27;101354.94;5037247;27;100920;-30
2023/09/12 01:53:53;;;;;;;11.45;6.10;;;;;;;19.76;87.72;101349.16;5036776;27;96605;-27
2023/09/12 01:56:20;;;;;;;11.88;5.78;;;;;;;19.78;87.24;101347.09;5037312;27;96839;-28
2023/09/12 01:58:45;;;;;;;10.43;5.43;;;;;;;19.80;87.57;101360.72;5037066;27;101069;-28
2023/09/12 02:01:11;;;;;;;11.20;6.22;;;;;;;19.73;87.10;101350.31;5055371;27;97765;-27
2023/09/12 02:03:36;;;;;;;11.55;5.53;;;;;;;19.76;87.88;101362.91;5055700;27;96654;-28
2023/09/12 02:06:02;;;;;;;8.57;4.78;;;;;;;19.71;87.95;101356.94;5037565;27;96950;-28
2023/09/12 02:08:27;;;;;;;10.35;5.32;;;;;;;19.72;88.00;101358.69;5054912;27;98893;-28
2023/09/12 02:10:52;;;;;;;12.43;5.15;;;;;;;19.69;88.07;101348.00;5055290;27;97497;-27
2023/09/12 02:13:17;;;;;;;11.35;4.90;;;;;;;19.69;87.59;101351.59;5055026;27;96569;-27
2023/09/12 02:15:43;;;;;;;11.68;5.38;;;;;;;19.68;88.33;101349.84;5055483;27;96777;-29
2023/09/12 02:18:08;;;;;;;11.05;5.50;;;;;;;19.66;88.22;101350.97;5055207;27;98155;-27
2023/09/12 02:20:38;;;;;;;8.98;5.15;;;;;;;19.61;88.45;101356.00;5055209;27;97769;-27
2023/09/12 02:23:04;;;;;;;11.68;5.47;;;;;;;19.63;87.98;101370.50;5037088;27;96604;-28
2023/09/12 02:25:29;;;;;;;9.50;5.18;;;;;;;19.60;88.64;101362.53;5055032;27;96823;-27
2023/09/12 02:27:54;;;;;;;9.38;4.75;;;;;;;19.59;88.64;101358.91;5055132;27;97413;-27
2023/09/12 02:30:20;;;;;;;12.07;5.18;;;;;;;19.61;88.35;101364.25;5055464;27;97831;-27
2023/09/12 02:32:45;;;;;;;11.23;5.00;;;;;;;19.55;88.74;101362.09;5054985;27;96494;-28
2023/09/12 02:35:10;;;;;;;13.02;5.53;;;;;;;19.55;88.55;101367.59;5055381;27;96755;-31
2023/09/12 02:37:36;;;;;;;8.95;4.13;;;;;;;19.52;88.54;101366.84;5054254;27;99246;-27
2023/09/12 02:40:04;;;;;;;10.70;4.97;;;;;;;19.57;88.26;101371.94;5054868;27;97397;-27
2023/09/12 02:42:29;;;;;;;10.88;5.18;;;;;;;19.53;88.45;101356.72;5036262;27;96828;-27
2023/09/12 02:44:54;;;;;;;10.55;5.50;;;;;;;19.51;88.95;101362.34;5054786;27;96859;-28
2023/09/12 02:47:20;;;;;;;11.63;5.15;;;;;;;19.56;88.61;101359.19;5054424;27;99236;-27
2023/09/12 02:49:45;;;;;;;9.40;4.57;;;;;;;19.57;88.55;101354.56;5054586;27;99312;-29
2023/09/12 02:52:10;;;;;;;11.27;5.38;;;;;;;19.56;88.97;101350.94;5055045;27;96610;-27
2023/09/12 02:54:36;;;;;;;9.70;4.82;;;;;;;19.55;88.59;101346.47;5055346;27;96703;-26
2023/09/12 02:57:01;;;;;;;11.55;5.30;;;;;;;19.60;88.87;101346.06;5054690;27;97398;-27
2023/09/12 02:59:26;;;;;;;13.27;5.60;;;;;;;19.61;88.75;101345.03;5054680;27;97782;-27
2023/09/12 03:01:52;;;;;;;11.95;5.05;;;;;;;19.58;88.88;101335.19;5054379;27;96589;-27
2023/09/12 03:04:17;;;;;;;9.98;5.20;;;;;;;19.63;89.13;101338.38;5054707;27;96926;-29
2023/09/12 03:06:43;;;;;;;14.48;6.10;;;;;;;19.64;88.63;101336.50;5056015;27;97853;-27
2023/09/12 03:09:09;;;;;;;12.25;5.40;;;;;;;19.65;88.50;101341.00;5058054;27;98888;-27
2023/09/12 03:11:34;;;;;;;14.52;6.40;;;;;;;19.65;88.86;101341.00;5058537;27;96869;-28
2023/09/12 03:14:00;;;;;;;12.25;6.07;;;;;;;19.66;88.37;101339.97;5058479;27;96785;-27
2023/09/12 03:16:25;;;;;;;12.48;5.95;;;;;;;19.66;88.57;101337.22;5058111;27;97875;-27
2023/09/12 03:18:51;;;;;;;12.70;6.35;;;;;;;19.62;88.66;101333.03;5058116;27;99156;-29
2023/09/12 03:21:16;;;;;;;12.43;5.50;;;;;;;19.65;88.93;101330.00;5057721;27;96809;-27
2023/09/12 03:23:41;;;;;;;15.07;6.15;;;;;;;19.60;89.07;101329.56;5058213;27;96769;-27
2023/09/12 03:26:07;;;;;;;14.70;6.70;;;;;;;19.63;89.03;101332.88;5057146;27;98275;-27
2023/09/12 03:28:33;;;;;;;14.25;6.53;;;;;;;19.69;88.88;101334.25;5057608;27;98789;-30
2023/09/12 03:31:13;;;;;;;17.52;6.85;;;;;;;19.69;88.88;101342.50;5057837;27;96659;-28
2023/09/12 03:33:39;;;;;;;17.38;6.43;;;;;;;19.66;89.65;101343.63;5057817;27;96795;-27
2023/09/12 03:36:06;;;;;;;14.60;6.63;;;;;;;19.68;88.58;101347.09;5039113;27;101239;-28
2023/09/12 03:38:31;;;;;;;14.68;6.65;;;;;;;19.67;89.09;101345.34;5057633;27;98013;-27
2023/09/12 03:40:57;;;;;;;15.75;7.55;;;;;;;19.64;89.31;101345.63;5057687;27;96812;-27
2023/09/12 03:43:22;;;;;;;18.00;7.25;;;;;;;19.69;89.65;101342.50;5057720;27;96871;-27
2023/09/12 03:45:48;;;;;;;15.93;7.00;;;;;;;19.69;89.21;101339.75;5057353;27;99184;-27
2023/09/12 03:48:14;;;;;;;17.70;7.13;;;;;;;19.68;89.63;101333.34;5057196;27;97711;-27
2023/09/12 03:50:39;;;;;;;15.15;6.95;;;;;;;19.67;89.96;101338.97;5057261;27;96521;-27
2023/09/12 03:53:05;;;;;;;12.73;6.60;;;;;;;19.68;89.73;101346.22;5058134;27;96772;-27
2023/09/12 03:55:30;;;;;;;15.52;7.10;;;;;;;19.61;91.19;101334.03;5057108;27;99483;-27
2023/09/12 03:57:56;;;;;;;16.88;6.57;;;;;;;19.65;90.14;101346.50;5057076;27;99489;-28
2023/09/12 04:00:21;;;;;;;14.20;6.22;;;;;;;19.61;90.58;101345.03;5057717;27;96613;-27
2023/09/12 04:02:47;;;;;;;16.17;6.57;;;;;;;19.59;90.29;101341.53;5057710;27;96786;-27
2023/09/12 04:05:12;;;;;;;14.40;6.50;;;;;;;19.62;90.47;101347.66;5057159;27;97879;-27
2023/09/12 04:07:37;;;;;;;13.18;6.32;;;;;;;19.57;89.78;101344.44;5057581;27;97438;-27
2023/09/12 04:10:03;;;;;;;11.95;5.55;;;;;;;19.59;90.56;101336.03;5057638;27;96424;-29
2023/09/12 04:12:28;;;;;;;12.80;6.13;;;;;;;19.53;90.19;101349.34;5057398;27;96814;-28
2023/09/12 04:14:57;;;;;;;15.98;6.32;;;;;;;19.58;91.05;101357.16;5056600;27;97426;-28
2023/09/12 04:17:22;;;;;;;16.90;6.38;;;;;;;19.55;90.60;101357.47;5037636;27;101522;-27
2023/09/12 04:19:47;;;;;;;12.48;6.03;;;;;;;19.52;90.46;101360.47;5057338;27;96481;-27
2023/09/12 04:22:13;;;;;;;12.40;5.25;;;;;;;19.53;90.44;101359.47;5057364;27;96786;-27
2023/09/12 04:24:39;;;;;;;14.07;5.88;;;;;;;19.56;91.33;101358.31;5038490;27;101451;-27
2023/09/12 04:27:04;;;;;;;15.10;6.60;;;;;;;19.50;90.76;101346.88;5056733;27;97853;-27
2023/09/12 04:29:33;;;;;;;15.00;5.72;;;;;;;19.52;90.82;101352.22;5057041;27;96527;-28
2023/09/12 04:31:59;;;;;;;14.55;6.32;;;;;;;19.51;90.31;101339.50;5039173;27;96922;-27
2023/09/12 04:34:25;;;;;;;14.23;5.68;;;;;;;19.56;91.87;101347.34;5056843;27;98182;-27
2023/09/12 04:36:51;;;;;;;12.88;6.07;;;;;;;19.49;91.41;101347.88;5056992;27;97281;-27
2023/09/12 04:39:17;;;;;;;18.05;6.22;;;;;;;19.52;91.85;101353.13;5056785;27;96463;-27
2023/09/12 04:41:42;;;;;;;13.88;6.32;;;;;;;19.52;91.88;101357.72;5056732;27;96879;-27
2023/09/12 04:44:07;;;;;;;14.88;6.57;;;;;;;19.53;91.52;101349.34;5056180;27;98833;-28
2023/09/12 04:46:33;;;;;;;15.30;6.57;;;;;;;19.48;91.31;101348.03;5056576;27;97796;-27
2023/09/12 04:48:59;;;;;;;17.55;6.88;;;;;;;19.53;91.39;101356.72;5038412;27;96531;-28
2023/09/12 04:51:24;;;;;;;19.27;7.68;;;;;;;19.51;91.25;101347.75;5056905;27;96770;-27
2023/09/12 04:53:51;;;;;;;16.25;7.30;;;;;;;19.47;91.83;101349.03;5056541;27;97751;-27
2023/09/12 04:56:17;;;;;;;17.63;7.20;;;;;;;19.49;91.34;101356.13;5056689;27;99427;-27
2023/09/12 04:58:42;;;;;;;14.15;7.18;;;;;;;19.49;91.60;101342.38;5038362;27;96634;-27
2023/09/12 05:01:09;;;;;;;20.35;7.88;;;;;;;19.50;91.43;101341.41;5056577;27;96804;-28
2023/09/12 05:03:34;;;;;;;21.23;8.18;;;;;;;19.53;91.27;101353.97;5055962;27;97947;-27
2023/09/12 05:06:00;;;;;;;23.17;9.23;;;;;;;19.49;90.68;101344.28;5056145;27;98859;-29
2023/09/12 05:08:25;;;;;;;17.92;7.88;;;;;;;19.48;92.09;101346.16;5056508;27;97129;-28
2023/09/12 05:10:50;;;;;;;21.70;9.20;;;;;;;19.42;91.92;101349.44;5056455;27;96793;-27
2023/09/12 05:13:17;;;;;;;20.65;8.18;;;;;;;19.41;92.50;101347.72;5056089;27;99787;-27
2023/09/12 05:15:42;;;;;;;18.00;8.43;;;;;;;19.49;92.08;101347.03;5055716;27;99817;-28
2023/09/12 05:18:07;;;;;;;25.70;9.75;;;;;;;19.48;92.05;101346.16;5056288;27;96553;-28
2023/09/12 05:20:34;;;;;;;25.15;9.23;;;;;;;19.52;92.63;101354.97;5056467;27;96785;-32
2023/09/12 05:22:59;;;;;;;21.67;9.05;;;;;;;19.52;91.55;101353.13;5055482;27;99150;-28
2023/09/12 05:25:26;;;;;;;18.40;8.20;;;;;;;19.49;92.58;101344.28;5055621;27;97637;-27
2023/09/12 05:27:52;;;;;;;17.92;9.50;;;;;;;19.55;92.55;101356.59;5053496;27;97009;-33
2023/09/12 05:30:17;;;;;;;24.17;10.05;;;;;;;19.58;92.78;101356.31;5053850;27;96779;-27
2023/09/12 05:32:43;;;;;;;22.20;9.35;;;;;;;19.59;92.92;101358.91;5055933;27;97389;-27
2023/09/12 05:35:08;;;;;;;27.17;10.63;;;;;;;19.62;92.41;101355.03;5055977;27;97289;-27
2023/09/12 05:37:33;;;;;;;24.13;10.38;;;;;;;19.59;92.35;101358.03;5056170;27;96508;-27
2023/09/12 05:39:59;;;;;;;26.40;9.65;;;;;;;19.60;92.66;101354.28;5056105;27;96845;-27
2023/09/12 05:42:24;;;;;;;19.10;8.82;;;;;;;19.60;92.39;101359.78;5055345;27;99246;-31
2023/09/12 05:44:53;;;;;;;27.10;9.85;;;;;;;19.67;92.38;101363.72;5053310;27;97912;-28
2023/09/12 05:47:18;;;;;;;25.67;9.52;;;;;;;19.70;92.07;101368.94;5034456;27;97112;-31
2023/09/12 05:49:44;;;;;;;24.27;10.35;;;;;;;19.70;92.17;101371.69;5051703;27;97297;-30
2023/09/12 05:52:09;;;;;;;28.15;10.88;;;;;;;19.73;92.57;101369.56;5050863;27;106296;-33
2023/09/12 05:54:34;;;;;;;28.30;11.00;;;;;;;19.71;93.21;101374.31;5051121;27;97777;-31
2023/09/12 05:57:00;;;;;;;23.88;10.88;;;;;;;19.72;92.54;101366.94;5051839;27;97095;-33
2023/09/12 05:59:25;;;;;;;27.88;11.73;;;;;;;19.67;93.25;101361.81;5052864;27;97149;-33
2023/09/12 06:01:52;;;;;;;29.83;11.23;;;;;;;19.71;92.06;101357.81;5053471;27;97408;-27
2023/09/12 06:04:17;;;;;;;22.83;10.02;;;;;;;19.74;91.87;101356.69;5037017;27;100968;-27
2023/09/12 06:06:43;;;;;;;25.05;10.63;;;;;;;19.71;92.59;101345.94;5055895;27;96568;-27
2023/09/12 06:09:09;;;;;;;28.77;11.13;;;;;;;19.81;92.85;101367.97;5056094;27;96458;-27
2023/09/12 06:11:34;;;;;;;30.92;10.98;;;;;;;19.78;92.46;101368.25;5055237;27;97913;-29
2023/09/12 06:14:00;;;;;;;25.83;10.73;;;;;;;19.79;92.24;101364.50;5055429;27;98155;-28
2023/09/12 06:16:25;;;;;;;33.45;11.00;;;;;;;19.84;92.80;101363.03;5054966;27;96427;-28
2023/09/12 06:18:51;;;;;;;25.55;10.50;;;;;;;19.81;92.75;101363.34;5055554;27;96794;-27
2023/09/12 06:21:17;;;;;;;31.42;11.43;;;;;;;19.76;92.59;101360.16;5054810;27;99393;-27
2023/09/12 06:23:42;;;;;;;25.17;11.60;;;;;;;19.81;92.27;101378.97;5036514;27;101003;-29
2023/09/12 06:26:07;;;;;;;26.13;10.13;;;;;;;19.85;92.17;101378.53;5055035;27;96861;-27
2023/09/12 06:28:33;;;;;;;30.10;11.57;;;;;;;;;;5054984;27;96874;-27
2023/09/12 06:30:58;;;;;;;26.95;11.13;;;;;;;19.87;91.95;101401.25;5054972;27;97486;-27
2023/09/12 06:33:28;;;;;;;22.67;10.45;;;;;;;19.83;93.02;101388.81;5055498;27;97754;-27
2023/09/12 06:35:54;;;;;;;27.45;10.85;;;;;;;19.84;92.23;101384.19;5055208;27;96597;-28
2023/09/12 06:38:20;;;;;;;27.50;10.85;;;;;;;19.86;92.68;101394.03;5036803;27;96899;-27
2023/09/12 06:40:47;;;;;;;23.27;9.90;;;;;;;19.79;92.33;101384.59;5035620;27;101638;-27
2023/09/12 06:43:13;;;;;;;24.77;10.82;;;;;;;19.86;92.57;101395.91;5034744;27;100322;-27
2023/09/12 06:45:40;;;;;;;27.75;10.88;;;;;;;19.82;92.78;101395.31;5036574;27;96572;-27
2023/09/12 06:48:06;;;;;;;27.23;9.82;;;;;;;19.87;92.26;101401.25;5036601;27;96939;-27
2023/09/12 06:50:31;;;;;;;30.92;10.95;;;;;;;19.91;92.17;101413.72;5054885;27;97700;-28
2023/09/12 06:52:57;;;;;;;28.23;10.75;;;;;;;19.91;92.33;101397.22;5054434;27;99614;-28
2023/09/12 06:55:22;;;;;;;25.02;10.43;;;;;;;19.96;91.45;101398.69;5055016;27;96540;-27
2023/09/12 06:57:47;;;;;;;29.23;11.82;;;;;;;19.99;91.51;101398.38;5055478;27;96778;-27
2023/09/12 07:00:13;;;;;;;23.25;10.13;;;;;;;19.97;91.60;101392.16;5054336;27;98845;-27
2023/09/12 07:02:39;;;;;;;29.33;11.35;;;;;;;20.02;92.07;101401.72;5054746;27;97920;-27
2023/09/12 07:05:05;;;;;;;27.48;11.88;;;;;;;20.03;91.95;101397.09;5054432;27;96391;-28
2023/09/12 07:07:30;;;;;;;23.02;9.85;;;;;;;20.06;91.66;101400.41;5054776;27;96840;-27
2023/09/12 07:09:56;;;;;;;25.02;10.68;;;;;;;20.09;91.82;101399.25;5036166;27;101084;-29
2023/09/12 07:12:22;;;;;;;27.67;9.82;;;;;;;20.12;91.40;101399.84;5035891;27;100942;-27
2023/09/12 07:14:47;;;;;;;24.98;10.70;;;;;;;20.15;91.59;101398.69;5054630;27;96564;-27
2023/09/12 07:17:12;;;;;;;26.38;10.90;;;;;;;20.14;91.22;101399.69;5054761;27;96871;-28
2023/09/12 07:19:38;;;;;;;27.85;10.27;;;;;;;20.19;91.52;101407.50;5035935;27;101126;-27
2023/09/12 07:22:03;;;;;;;30.02;11.18;;;;;;;20.19;91.20;101397.41;5054747;27;97249;-27
2023/09/12 07:24:29;;;;;;;31.85;10.65;;;;;;;20.21;91.30;101403.59;5054565;27;96597;-27
2023/09/12 07:26:54;;;;;;;27.67;11.30;;;;;;;20.27;90.34;101404.94;5054408;27;96793;-27
2023/09/12 07:29:19;;;;;;;24.23;11.50;;;;;;;20.32;91.27;101400.72;5053694;27;97832;-27
2023/09/12 07:31:45;;;;;;;28.40;12.18;;;;;;;20.35;90.87;101408.72;5054334;27;97992;-27
2023/09/12 07:34:11;;;;;;;27.42;12.65;;;;;;;20.33;90.89;101404.34;5054968;27;96710;-27
2023/09/12 07:36:37;;;;;;;29.08;11.38;;;;;;;20.40;90.53;101405.50;5054380;27;96828;-27
2023/09/12 07:39:04;;;;;;;31.50;12.68;;;;;;;20.45;91.86;101407.81;5035748;27;100786;-27
2023/09/12 07:41:30;;;;;;;27.63;12.77;;;;;;;20.50;90.42;101408.28;5035432;27;99542;-28
2023/09/12 07:43:55;;;;;;;31.08;13.57;;;;;;;20.70;89.94;101406.41;5053714;27;96603;-27
2023/09/12 07:46:21;;;;;;;31.23;12.55;;;;;;;20.99;90.08;101404.44;5036361;27;96935;-27
2023/09/12 07:48:46;;;;;;;29.98;12.32;;;;;;;21.11;88.67;101407.91;5053832;27;99279;-27
2023/09/12 07:51:17;;;;;;;29.30;12.25;;;;;;;21.16;87.59;101415.72;5053819;27;99221;-27
2023/09/12 07:53:43;;;;;;;30.33;11.40;;;;;;;21.16;87.87;101405.56;5056627;27;96565;-27
2023/09/12 07:56:10;;;;;;;28.80;12.32;;;;;;;21.25;88.57;101419.47;5039299;27;96888;-27
2023/09/12 07:58:35;;;;;;;28.45;12.05;;;;;;;21.23;87.78;101416.84;5038816;27;100899;-27
2023/09/12 08:01:08;;;;;;;28.85;11.98;;;;;;;21.12;87.56;101420.66;5056766;27;97761;-28
2023/09/12 08:03:39;;;;;;;33.53;12.13;;;;;;;21.09;87.89;101425.59;5038144;27;96863;-27
2023/09/12 08:06:04;;;;;;;26.30;12.57;;;;;;;21.02;88.54;101418.94;5057527;27;96666;-30
2023/09/12 08:08:30;;;;;;;28.98;12.73;;;;;;;21.04;88.61;101423.28;5056882;27;99411;-28
2023/09/12 08:10:57;;;;;;;26.05;11.02;;;;;;;21.01;88.63;101434.59;5057252;27;99287;-27
2023/09/12 08:13:22;;;;;;;31.17;12.93;;;;;;;20.97;88.64;101425.78;5057494;27;96685;-27
2023/09/12 08:15:48;;;;;;;28.27;12.30;;;;;;;21.03;88.62;101427.06;5057121;27;96888;-28
2023/09/12 08:18:13;;;;;;;31.40;12.50;;;;;;;21.11;88.21;101424.41;5056561;27;97635;-27
2023/09/12 08:20:38;;;;;;;25.65;11.35;;;;;;;21.08;88.88;101421.97;5057015;27;97816;-27
2023/09/12 08:23:04;;;;;;;25.63;11.73;;;;;;;21.06;88.50;101420.38;5057452;27;96688;-27
2023/09/12 08:25:29;;;;;;;23.48;11.45;;;;;;;21.09;88.66;101425.59;5057151;27;96834;-27
2023/09/12 08:27:54;;;;;;;24.35;11.85;;;;;;;21.43;88.54;101428.72;5056814;27;97898;-27
2023/09/12 08:30:20;;;;;;;23.80;10.95;;;;;;;21.54;87.08;101423.00;5057125;27;97289;-27
2023/09/12 08:32:45;;;;;;;26.17;12.85;;;;;;;21.57;86.43;101428.22;5057151;27;96718;-27
2023/09/12 08:35:14;;;;;;;29.33;13.60;;;;;;;21.68;86.15;101431.78;5057415;27;97016;-27
2023/09/12 08:37:41;;;;;;;34.03;13.10;;;;;;;21.71;86.53;101437.00;5038277;27;101582;-27
2023/09/12 08:40:10;;;;;;;24.25;11.52;;;;;;;21.63;86.15;101429.50;5038297;27;101138;-27
2023/09/12 08:42:42;;;;;;;23.95;11.60;;;;;;;21.69;86.32;101428.00;5037221;27;96920;-27
2023/09/12 08:45:17;;;;;;;28.35;12.80;;;;;;;21.72;86.18;101436.00;5057028;27;96645;-28
2023/09/12 08:47:44;;;;;;;24.23;11.65;;;;;;;21.77;85.68;101437.25;5056333;27;101139;-27
2023/09/12 08:50:12;;;;;;;21.48;10.35;;;;;;;21.84;85.91;101429.25;5038132;27;100974;-27
2023/09/12 08:52:38;;;;;;;30.20;13.85;;;;;;;21.89;86.18;101432.41;5056708;27;96574;-29
2023/09/12 08:55:04;;;;;;;26.35;12.52;;;;;;;22.00;86.22;101431.31;5038449;27;96851;-27
2023/09/12 08:57:33;;;;;;;26.33;12.93;;;;;;;21.92;85.48;101420.19;5056243;27;99394;-27
2023/09/12 09:00:02;;;;;;;24.85;12.48;;;;;;;21.93;85.63;101435.72;5038426;27;101296;-27
2023/09/12 09:02:28;;;;;;;28.38;13.85;;;;;;;21.85;85.68;101423.56;5038331;27;96647;-28
2023/09/12 09:04:55;;;;;;;25.25;11.95;;;;;;;21.75;85.72;101416.38;5056428;27;96820;-29
2023/09/12 09:07:22;;;;;;;24.98;12.38;;;;;;;21.78;85.41;101430.72;5037212;27;101412;-28
2023/09/12 09:09:49;;;;;;;25.00;11.68;;;;;;;21.71;85.35;101443.38;5037986;27;101085;-27
2023/09/12 09:12:14;;;;;;;23.10;11.63;;;;;;;21.71;85.37;101439.75;5038048;27;96598;-27
2023/09/12 09:14:39;;;;;;;25.00;12.02;;;;;;;21.69;86.03;101433.53;5056236;27;96822;-27
2023/09/12 09:17:05;;;;;;;21.92;10.60;;;;;;;21.72;85.74;101447.88;5056061;27;98108;-27
2023/09/12 09:19:41;;;;;;;22.40;10.68;;;;;;;21.71;85.78;101453.53;5056277;27;97358;-27
2023/09/12 09:22:07;;;;;;;20.58;10.10;;;;;;;21.89;85.82;101443.44;5038121;27;96862;-27
2023/09/12 09:24:32;;;;;;;17.58;9.05;;;;;;;21.97;85.04;101443.53;5056535;27;96838;-28
2023/09/12 09:27:00;;;;;;;21.10;10.27;;;;;;;22.26;83.74;101437.88;5055736;27;98414;-27
2023/09/12 09:29:31;;;;;;;21.80;11.18;;;;;;;22.48;82.43;101436.53;5037394;27;100853;-27
2023/09/12 09:31:58;;;;;;;18.80;10.02;;;;;;;22.65;81.61;101440.31;5055857;27;96694;-29
2023/09/12 09:34:24;;;;;;;22.52;11.73;;;;;;;22.66;81.50;101444.78;5055977;27;96812;-27
2023/09/12 09:36:54;;;;;;;19.55;9.98;;;;;;;22.66;81.76;101452.22;5055582;27;99495;-28
2023/09/12 09:39:25;;;;;;;21.80;10.02;;;;;;;22.65;82.17;101450.50;5037356;27;101111;-27
2023/09/12 09:41:55;;;;;;;22.67;10.93;;;;;;;22.65;82.76;101458.78;5056044;27;96635;-28
2023/09/12 09:44:22;;;;;;;17.77;9.02;;;;;;;22.64;81.63;101462.53;5037357;27;96716;-29
2023/09/12 09:46:54;;;;;;;20.20;9.07;;;;;;;22.65;81.84;101469.81;5055698;27;98063;-28
2023/09/12 09:49:20;;;;;;;18.10;8.18;;;;;;;22.61;81.50;101454.59;5037641;27;101188;-28
2023/09/12 09:51:46;;;;;;;18.35;8.77;;;;;;;22.69;81.61;101458.31;5056049;27;96502;-27
2023/09/12 09:54:12;;;;;;;19.38;8.20;;;;;;;22.68;81.06;101470.34;5055699;27;96827;-27
2023/09/12 09:56:48;;;;;;;17.83;8.65;;;;;;;22.56;81.48;101466.09;5036673;27;101042;-28
2023/09/12 09:59:16;;;;;;;15.18;7.40;;;;;;;22.70;81.20;101464.69;5036843;27;101132;-28
2023/09/12 10:01:43;;;;;;;18.85;8.05;;;;;;;22.71;80.59;101460.88;5037407;27;96629;-27
2023/09/12 10:04:09;;;;;;;16.77;8.40;;;;;;;22.74;81.05;101462.47;5037458;27;96871;-29
2023/09/12 10:06:36;;;;;;;20.10;9.98;;;;;;;22.88;81.12;101461.88;5055279;27;99311;-27
2023/09/12 10:09:07;;;;;;;20.27;9.55;;;;;;;23.14;80.11;101447.28;5036876;27;101319;-27
2023/09/12 10:11:33;;;;;;;22.35;10.20;;;;;;;23.19;79.40;101459.59;5037192;27;96748;-27
2023/09/12 10:14:02;;;;;;;19.70;8.68;;;;;;;23.24;79.28;101448.03;5055809;27;96810;-27
2023/09/12 10:16:31;;;;;;;21.15;9.82;;;;;;;23.56;78.59;101454.81;5036288;27;100851;-28
2023/09/12 10:19:22;;;;;;;18.90;9.40;;;;;;;23.73;76.96;101446.44;5036688;27;100846;-29
2023/09/12 10:21:54;;;;;;;23.83;10.55;;;;;;;23.99;76.53;101453.81;5035560;27;97810;-27
2023/09/12 10:24:21;;;;;;;23.38;9.75;;;;;;;24.24;75.86;101449.22;5054762;27;96843;-27
2023/09/12 10:26:49;;;;;;;18.95;10.18;;;;;;;24.52;74.40;101444.25;5034918;27;100987;-28
2023/09/12 10:29:15;;;;;;;23.40;10.20;;;;;;;24.73;72.81;101452.06;5035007;27;100982;-27
2023/09/12 10:31:41;;;;;;;17.00;9.35;;;;;;;24.72;72.39;101450.34;5055334;27;96531;-27
2023/09/12 10:34:09;;;;;;;18.20;9.10;;;;;;;24.76;72.14;101454.50;5055340;27;96811;-27
2023/09/12 10:36:38;;;;;;;15.32;8.10;;;;;;;24.96;72.72;101440.31;5036301;27;99196;-27
2023/09/12 10:39:05;;;;;;;19.05;8.85;;;;;;;25.24;72.09;101443.56;5036007;27;100787;-33
2023/09/12 10:41:30;;;;;;;19.85;9.40;;;;;;;25.35;69.20;101445.13;5034183;27;97034;-28
2023/09/12 10:43:57;;;;;;;14.40;7.43;;;;;;;25.04;71.75;101439.44;5052289;27;97092;-33
2023/09/12 10:46:23;;;;;;;19.42;8.10;;;;;;;24.94;71.33;101431.28;5016631;27;101392;-28
2023/09/12 10:48:49;;;;;;;21.50;8.13;;;;;;;25.04;71.64;101425.56;5052456;27;97771;-31
2023/09/12 10:51:16;;;;;;;16.55;8.20;;;;;;;25.27;70.77;101421.06;5034221;27;97070;-35
2023/09/12 10:53:48;;;;;;;17.23;8.63;;;;;;;25.50;69.13;101420.28;5017535;27;96984;-33
2023/09/12 10:56:14;;;;;;;16.80;8.27;;;;;;;25.63;69.93;101415.91;5036188;27;100793;-29
2023/09/12 10:59:06;;;;;;;18.13;7.78;;;;;;;25.31;68.69;101402.13;5036186;27;100798;-27
2023/09/12 11:01:33;;;;;;;21.15;8.25;;;;;;;25.16;70.38;101402.84;5049092;27;96824;-29
2023/09/12 11:03:58;;;;;;;18.65;8.85;;;;;;;25.26;71.13;101410.97;5036875;27;96833;-27
2023/09/12 11:06:31;;;;;;;21.13;8.57;;;;;;;25.14;70.90;101396.59;5054542;27;97940;-28
2023/09/12 11:09:14;;;;;;;14.40;7.65;;;;;;;25.06;70.03;101391.06;5036137;27;101178;-27
2023/09/12 11:11:54;;;;;;;15.93;7.43;;;;;;;25.19;70.94;101398.88;5054192;27;96625;-27